sensor_id;sensor_type;location;lat;lon;timestamp;P1;durP1;ratioP1;P2;durP2;ratioP2
45232;SDS011;30969;51.052;17.056;2022-12-07T00:01:55;15.00;;;6.65;;
45232;SDS011;30969;51.052;17.056;2022-12-07T00:06:59;6.97;;;4.85;;
45232;SDS011;30969;51.052;17.056;2022-12-07T00:12:03;7.88;;;5.13;;
45232;SDS011;30969;51.052;17.056;2022-12-07T00:17:09;6.45;;;4.32;;
45232;SDS011;30969;51.052;17.056;2022-12-07T00:22:12;7.03;;;4.40;;
45232;SDS011;30969;51.052;17.056;2022-12-07T00:27:16;6.05;;;3.83;;
45232;SDS011;30969;51.052;17.056;2022-12-07T00:32:20;5.38;;;3.63;;
45232;SDS011;30969;51.052;17.056;2022-12-07T00:37:24;6.13;;;3.97;;
45232;SDS011;30969;51.052;17.056;2022-12-07T00:42:27;8.57;;;4.15;;
45232;SDS011;30969;51.052;17.056;2022-12-07T00:47:32;6.75;;;4.50;;
45232;SDS011;30969;51.052;17.056;2022-12-07T00:52:36;5.90;;;4.15;;
45232;SDS011;30969;51.052;17.056;2022-12-07T00:57:39;5.25;;;3.35;;
45232;SDS011;30969;51.052;17.056;2022-12-07T01:02:44;4.32;;;2.75;;
45232;SDS011;30969;51.052;17.056;2022-12-07T01:07:48;4.82;;;3.13;;
45232;SDS011;30969;51.052;17.056;2022-12-07T01:12:51;5.28;;;3.60;;
45232;SDS011;30969;51.052;17.056;2022-12-07T01:17:56;6.43;;;3.33;;
45232;SDS011;30969;51.052;17.056;2022-12-07T01:23:00;6.75;;;3.63;;
45232;SDS011;30969;51.052;17.056;2022-12-07T01:28:03;5.75;;;3.15;;
45232;SDS011;30969;51.052;17.056;2022-12-07T01:33:08;4.15;;;2.97;;
45232;SDS011;30969;51.052;17.056;2022-12-07T01:38:12;3.13;;;2.28;;
45232;SDS011;30969;51.052;17.056;2022-12-07T01:43:16;3.28;;;2.13;;
45232;SDS011;30969;51.052;17.056;2022-12-07T01:48:23;3.95;;;2.13;;
45232;SDS011;30969;51.052;17.056;2022-12-07T01:53:30;3.55;;;2.15;;
45232;SDS011;30969;51.052;17.056;2022-12-07T01:58:37;3.75;;;2.00;;
45232;SDS011;30969;51.052;17.056;2022-12-07T02:03:43;3.28;;;1.80;;
45232;SDS011;30969;51.052;17.056;2022-12-07T02:08:47;3.35;;;1.80;;
45232;SDS011;30969;51.052;17.056;2022-12-07T02:13:51;2.53;;;1.27;;
45232;SDS011;30969;51.052;17.056;2022-12-07T02:18:59;2.58;;;1.38;;
45232;SDS011;30969;51.052;17.056;2022-12-07T02:24:25;2.97;;;1.58;;
45232;SDS011;30969;51.052;17.056;2022-12-07T02:29:56;2.38;;;1.40;;
45232;SDS011;30969;51.052;17.056;2022-12-07T02:35:05;2.20;;;1.33;;
45232;SDS011;30969;51.052;17.056;2022-12-07T02:40:12;3.40;;;1.30;;
45232;SDS011;30969;51.052;17.056;2022-12-07T02:45:23;2.33;;;1.17;;
45232;SDS011;30969;51.052;17.056;2022-12-07T02:50:30;3.40;;;1.42;;
45232;SDS011;30969;51.052;17.056;2022-12-07T02:55:35;3.88;;;1.30;;
45232;SDS011;30969;51.052;17.056;2022-12-07T03:00:48;2.67;;;1.40;;
45232;SDS011;30969;51.052;17.056;2022-12-07T03:11:10;1.85;;;1.23;;
45232;SDS011;30969;51.052;17.056;2022-12-07T03:16:25;2.60;;;1.45;;
45232;SDS011;30969;51.052;17.056;2022-12-07T03:21:33;2.83;;;1.70;;
45232;SDS011;30969;51.052;17.056;2022-12-07T03:26:41;5.20;;;1.90;;
45232;SDS011;30969;51.052;17.056;2022-12-07T03:31:50;3.92;;;1.60;;
45232;SDS011;30969;51.052;17.056;2022-12-07T03:37:00;3.05;;;1.55;;
45232;SDS011;30969;51.052;17.056;2022-12-07T03:42:07;3.90;;;1.48;;
45232;SDS011;30969;51.052;17.056;2022-12-07T03:47:16;2.70;;;1.80;;
45232;SDS011;30969;51.052;17.056;2022-12-07T03:52:26;3.47;;;1.90;;
45232;SDS011;30969;51.052;17.056;2022-12-07T03:57:36;2.20;;;1.60;;
45232;SDS011;30969;51.052;17.056;2022-12-07T04:02:43;3.92;;;2.10;;
45232;SDS011;30969;51.052;17.056;2022-12-07T04:07:47;2.50;;;1.80;;
45232;SDS011;30969;51.052;17.056;2022-12-07T04:12:51;2.78;;;1.88;;
45232;SDS011;30969;51.052;17.056;2022-12-07T04:17:56;5.05;;;2.22;;
45232;SDS011;30969;51.052;17.056;2022-12-07T04:22:59;3.72;;;2.10;;
45232;SDS011;30969;51.052;17.056;2022-12-07T04:28:03;4.30;;;2.13;;
45232;SDS011;30969;51.052;17.056;2022-12-07T04:33:08;2.20;;;1.67;;
45232;SDS011;30969;51.052;17.056;2022-12-07T04:38:11;3.10;;;2.03;;
45232;SDS011;30969;51.052;17.056;2022-12-07T04:43:14;4.05;;;2.58;;
45232;SDS011;30969;51.052;17.056;2022-12-07T04:48:19;2.53;;;1.98;;
45232;SDS011;30969;51.052;17.056;2022-12-07T04:53:23;5.03;;;2.58;;
45232;SDS011;30969;51.052;17.056;2022-12-07T04:58:26;3.17;;;2.13;;
45232;SDS011;30969;51.052;17.056;2022-12-07T05:03:31;5.57;;;2.55;;
45232;SDS011;30969;51.052;17.056;2022-12-07T05:08:35;4.07;;;2.17;;
45232;SDS011;30969;51.052;17.056;2022-12-07T05:13:39;3.22;;;2.15;;
45232;SDS011;30969;51.052;17.056;2022-12-07T05:18:43;3.13;;;2.65;;
45232;SDS011;30969;51.052;17.056;2022-12-07T05:23:47;3.58;;;2.17;;
45232;SDS011;30969;51.052;17.056;2022-12-07T05:28:51;3.25;;;2.15;;
45232;SDS011;30969;51.052;17.056;2022-12-07T05:33:56;3.92;;;2.17;;
45232;SDS011;30969;51.052;17.056;2022-12-07T05:38:59;4.38;;;3.00;;
45232;SDS011;30969;51.052;17.056;2022-12-07T05:44:03;5.68;;;3.70;;
45232;SDS011;30969;51.052;17.056;2022-12-07T05:49:08;8.77;;;4.78;;
45232;SDS011;30969;51.052;17.056;2022-12-07T05:54:12;8.68;;;5.63;;
45232;SDS011;30969;51.052;17.056;2022-12-07T05:59:15;12.48;;;7.57;;
45232;SDS011;30969;51.052;17.056;2022-12-07T06:04:27;13.02;;;7.45;;
45232;SDS011;30969;51.052;17.056;2022-12-07T06:09:32;13.63;;;7.88;;
45232;SDS011;30969;51.052;17.056;2022-12-07T06:14:36;15.68;;;9.82;;
45232;SDS011;30969;51.052;17.056;2022-12-07T06:19:41;15.05;;;9.18;;
45232;SDS011;30969;51.052;17.056;2022-12-07T06:24:45;14.38;;;8.93;;
45232;SDS011;30969;51.052;17.056;2022-12-07T06:29:49;14.27;;;8.50;;
45232;SDS011;30969;51.052;17.056;2022-12-07T06:34:53;15.82;;;8.80;;
45232;SDS011;30969;51.052;17.056;2022-12-07T06:39:57;15.02;;;9.13;;
45232;SDS011;30969;51.052;17.056;2022-12-07T06:45:01;18.50;;;9.98;;
45232;SDS011;30969;51.052;17.056;2022-12-07T06:50:08;16.65;;;9.23;;
45232;SDS011;30969;51.052;17.056;2022-12-07T06:55:12;15.23;;;9.73;;
45232;SDS011;30969;51.052;17.056;2022-12-07T07:00:16;17.20;;;10.05;;
45232;SDS011;30969;51.052;17.056;2022-12-07T07:05:24;15.45;;;9.68;;
45232;SDS011;30969;51.052;17.056;2022-12-07T07:10:28;16.13;;;9.95;;
45232;SDS011;30969;51.052;17.056;2022-12-07T07:15:31;16.33;;;9.52;;
45232;SDS011;30969;51.052;17.056;2022-12-07T07:20:37;14.77;;;9.07;;
45232;SDS011;30969;51.052;17.056;2022-12-07T07:25:41;16.92;;;9.57;;
45232;SDS011;30969;51.052;17.056;2022-12-07T07:30:44;18.27;;;10.07;;
45232;SDS011;30969;51.052;17.056;2022-12-07T07:35:49;19.52;;;10.05;;
45232;SDS011;30969;51.052;17.056;2022-12-07T07:40:53;14.60;;;9.10;;
45232;SDS011;30969;51.052;17.056;2022-12-07T07:45:56;15.65;;;9.45;;
45232;SDS011;30969;51.052;17.056;2022-12-07T07:51:01;16.52;;;10.13;;
45232;SDS011;30969;51.052;17.056;2022-12-07T07:56:08;17.42;;;10.55;;
45232;SDS011;30969;51.052;17.056;2022-12-07T08:01:11;17.75;;;10.30;;
45232;SDS011;30969;51.052;17.056;2022-12-07T08:06:18;17.63;;;9.82;;
45232;SDS011;30969;51.052;17.056;2022-12-07T08:11:21;18.15;;;10.30;;
45232;SDS011;30969;51.052;17.056;2022-12-07T08:16:24;18.63;;;10.38;;
45232;SDS011;30969;51.052;17.056;2022-12-07T08:21:29;16.00;;;10.65;;
45232;SDS011;30969;51.052;17.056;2022-12-07T08:26:33;16.30;;;9.85;;
45232;SDS011;30969;51.052;17.056;2022-12-07T08:31:36;16.05;;;9.57;;
45232;SDS011;30969;51.052;17.056;2022-12-07T08:36:42;16.35;;;9.93;;
45232;SDS011;30969;51.052;17.056;2022-12-07T08:41:46;18.42;;;11.38;;
45232;SDS011;30969;51.052;17.056;2022-12-07T08:46:50;18.08;;;10.40;;
45232;SDS011;30969;51.052;17.056;2022-12-07T08:52:00;21.42;;;10.98;;
45232;SDS011;30969;51.052;17.056;2022-12-07T08:57:06;13.43;;;9.02;;
45232;SDS011;30969;51.052;17.056;2022-12-07T09:02:10;15.57;;;9.77;;
45232;SDS011;30969;51.052;17.056;2022-12-07T09:07:16;14.93;;;8.32;;
45232;SDS011;30969;51.052;17.056;2022-12-07T09:12:19;13.23;;;8.63;;
45232;SDS011;30969;51.052;17.056;2022-12-07T09:17:23;14.63;;;7.70;;
45232;SDS011;30969;51.052;17.056;2022-12-07T09:22:29;12.60;;;7.90;;
45232;SDS011;30969;51.052;17.056;2022-12-07T09:27:33;11.63;;;7.25;;
45232;SDS011;30969;51.052;17.056;2022-12-07T09:32:37;12.50;;;6.82;;
45232;SDS011;30969;51.052;17.056;2022-12-07T09:37:41;10.73;;;7.40;;
45232;SDS011;30969;51.052;17.056;2022-12-07T09:42:47;12.98;;;7.50;;
45232;SDS011;30969;51.052;17.056;2022-12-07T09:47:53;10.15;;;6.35;;
45232;SDS011;30969;51.052;17.056;2022-12-07T09:53:04;12.38;;;7.00;;
45232;SDS011;30969;51.052;17.056;2022-12-07T09:58:12;10.93;;;7.22;;
45232;SDS011;30969;51.052;17.056;2022-12-07T10:03:22;10.23;;;6.43;;
45232;SDS011;30969;51.052;17.056;2022-12-07T10:08:27;10.80;;;7.15;;
45232;SDS011;30969;51.052;17.056;2022-12-07T10:13:34;13.82;;;8.20;;
45232;SDS011;30969;51.052;17.056;2022-12-07T10:18:39;11.63;;;7.30;;
45232;SDS011;30969;51.052;17.056;2022-12-07T10:24:00;14.43;;;8.13;;
45232;SDS011;30969;51.052;17.056;2022-12-07T10:29:13;11.85;;;8.23;;
45232;SDS011;30969;51.052;17.056;2022-12-07T10:34:20;12.98;;;8.32;;
45232;SDS011;30969;51.052;17.056;2022-12-07T10:39:28;11.15;;;6.95;;
45232;SDS011;30969;51.052;17.056;2022-12-07T10:44:33;11.30;;;7.53;;
45232;SDS011;30969;51.052;17.056;2022-12-07T10:49:54;9.23;;;6.32;;
45232;SDS011;30969;51.052;17.056;2022-12-07T10:55:18;11.60;;;7.07;;
45232;SDS011;30969;51.052;17.056;2022-12-07T11:00:28;9.13;;;5.15;;
45232;SDS011;30969;51.052;17.056;2022-12-07T11:05:39;4.18;;;2.47;;
45232;SDS011;30969;51.052;17.056;2022-12-07T11:10:51;5.75;;;3.30;;
45232;SDS011;30969;51.052;17.056;2022-12-07T11:16:08;6.07;;;3.45;;
45232;SDS011;30969;51.052;17.056;2022-12-07T11:21:20;6.85;;;3.65;;
45232;SDS011;30969;51.052;17.056;2022-12-07T11:26:34;7.13;;;4.72;;
45232;SDS011;30969;51.052;17.056;2022-12-07T11:31:54;6.22;;;3.83;;
45232;SDS011;30969;51.052;17.056;2022-12-07T11:37:09;6.07;;;3.53;;
45232;SDS011;30969;51.052;17.056;2022-12-07T11:42:19;4.40;;;3.05;;
45232;SDS011;30969;51.052;17.056;2022-12-07T11:47:26;4.50;;;2.78;;
45232;SDS011;30969;51.052;17.056;2022-12-07T11:52:43;5.07;;;3.10;;
45232;SDS011;30969;51.052;17.056;2022-12-07T11:57:54;5.07;;;2.92;;
45232;SDS011;30969;51.052;17.056;2022-12-07T12:03:08;7.47;;;3.88;;
45232;SDS011;30969;51.052;17.056;2022-12-07T12:08:14;7.82;;;4.00;;
45232;SDS011;30969;51.052;17.056;2022-12-07T12:14:04;6.38;;;3.75;;
45232;SDS011;30969;51.052;17.056;2022-12-07T12:19:37;7.07;;;3.85;;
45232;SDS011;30969;51.052;17.056;2022-12-07T12:24:44;5.25;;;2.97;;
45232;SDS011;30969;51.052;17.056;2022-12-07T12:29:54;4.97;;;3.33;;
45232;SDS011;30969;51.052;17.056;2022-12-07T12:35:02;7.15;;;3.63;;
45232;SDS011;30969;51.052;17.056;2022-12-07T12:40:40;6.22;;;3.58;;
45232;SDS011;30969;51.052;17.056;2022-12-07T12:45:52;8.15;;;3.60;;
45232;SDS011;30969;51.052;17.056;2022-12-07T12:51:36;6.82;;;4.00;;
45232;SDS011;30969;51.052;17.056;2022-12-07T12:56:43;8.40;;;3.80;;
45232;SDS011;30969;51.052;17.056;2022-12-07T13:02:09;7.10;;;4.15;;
45232;SDS011;30969;51.052;17.056;2022-12-07T13:12:57;6.15;;;4.00;;
45232;SDS011;30969;51.052;17.056;2022-12-07T13:18:04;6.72;;;4.10;;
45232;SDS011;30969;51.052;17.056;2022-12-07T13:23:27;7.38;;;3.92;;
45232;SDS011;30969;51.052;17.056;2022-12-07T13:28:35;4.75;;;3.42;;
45232;SDS011;30969;51.052;17.056;2022-12-07T13:33:44;7.35;;;4.30;;
45232;SDS011;30969;51.052;17.056;2022-12-07T13:38:50;7.28;;;4.25;;
45232;SDS011;30969;51.052;17.056;2022-12-07T13:44:00;8.63;;;4.03;;
45232;SDS011;30969;51.052;17.056;2022-12-07T13:49:12;6.88;;;4.20;;
45232;SDS011;30969;51.052;17.056;2022-12-07T13:54:23;6.75;;;4.32;;
45232;SDS011;30969;51.052;17.056;2022-12-07T13:59:29;8.15;;;4.45;;
45232;SDS011;30969;51.052;17.056;2022-12-07T14:04:36;7.43;;;4.55;;
45232;SDS011;30969;51.052;17.056;2022-12-07T14:09:40;9.23;;;4.35;;
45232;SDS011;30969;51.052;17.056;2022-12-07T14:14:46;10.07;;;4.70;;
45232;SDS011;30969;51.052;17.056;2022-12-07T14:19:53;9.07;;;4.53;;
45232;SDS011;30969;51.052;17.056;2022-12-07T14:25:09;8.73;;;4.50;;
45232;SDS011;30969;51.052;17.056;2022-12-07T14:30:19;5.90;;;4.05;;
45232;SDS011;30969;51.052;17.056;2022-12-07T14:35:24;6.63;;;4.25;;
45232;SDS011;30969;51.052;17.056;2022-12-07T14:40:28;7.10;;;4.32;;
45232;SDS011;30969;51.052;17.056;2022-12-07T14:45:33;10.80;;;4.72;;
45232;SDS011;30969;51.052;17.056;2022-12-07T14:50:38;10.20;;;5.25;;
45232;SDS011;30969;51.052;17.056;2022-12-07T14:56:04;7.95;;;4.40;;
45232;SDS011;30969;51.052;17.056;2022-12-07T15:01:08;6.28;;;3.97;;
45232;SDS011;30969;51.052;17.056;2022-12-07T15:06:17;11.70;;;4.38;;
45232;SDS011;30969;51.052;17.056;2022-12-07T15:11:21;10.40;;;4.43;;
45232;SDS011;30969;51.052;17.056;2022-12-07T15:16:24;9.80;;;5.13;;
45232;SDS011;30969;51.052;17.056;2022-12-07T15:21:32;8.82;;;4.95;;
45232;SDS011;30969;51.052;17.056;2022-12-07T15:26:36;11.45;;;5.55;;
45232;SDS011;30969;51.052;17.056;2022-12-07T15:31:40;9.40;;;5.78;;
45232;SDS011;30969;51.052;17.056;2022-12-07T15:37:01;9.18;;;5.43;;
45232;SDS011;30969;51.052;17.056;2022-12-07T15:42:04;12.32;;;6.07;;
45232;SDS011;30969;51.052;17.056;2022-12-07T15:47:08;13.10;;;5.57;;
45232;SDS011;30969;51.052;17.056;2022-12-07T15:52:13;11.30;;;5.10;;
45232;SDS011;30969;51.052;17.056;2022-12-07T15:57:17;13.52;;;7.07;;
45232;SDS011;30969;51.052;17.056;2022-12-07T16:02:26;8.68;;;4.88;;
45232;SDS011;30969;51.052;17.056;2022-12-07T16:07:31;6.57;;;4.60;;
45232;SDS011;30969;51.052;17.056;2022-12-07T16:12:34;9.93;;;5.32;;
45232;SDS011;30969;51.052;17.056;2022-12-07T16:17:38;6.82;;;4.20;;
45232;SDS011;30969;51.052;17.056;2022-12-07T16:33:27;5.95;;;3.10;;
45232;SDS011;30969;51.052;17.056;2022-12-07T16:38:32;5.55;;;3.88;;
45232;SDS011;30969;51.052;17.056;2022-12-07T16:43:40;7.30;;;3.55;;
45232;SDS011;30969;51.052;17.056;2022-12-07T16:48:45;6.93;;;2.72;;
45232;SDS011;30969;51.052;17.056;2022-12-07T16:53:51;8.65;;;4.07;;
45232;SDS011;30969;51.052;17.056;2022-12-07T16:58:57;6.63;;;3.17;;
45232;SDS011;30969;51.052;17.056;2022-12-07T17:04:16;6.70;;;3.08;;
45232;SDS011;30969;51.052;17.056;2022-12-07T17:09:24;5.85;;;3.28;;
45232;SDS011;30969;51.052;17.056;2022-12-07T17:14:28;8.60;;;3.20;;
45232;SDS011;30969;51.052;17.056;2022-12-07T17:19:50;6.35;;;3.55;;
45232;SDS011;30969;51.052;17.056;2022-12-07T17:24:54;7.72;;;3.55;;
45232;SDS011;30969;51.052;17.056;2022-12-07T17:29:58;7.47;;;3.33;;
45232;SDS011;30969;51.052;17.056;2022-12-07T17:35:02;8.55;;;3.85;;
45232;SDS011;30969;51.052;17.056;2022-12-07T17:40:08;9.82;;;4.32;;
45232;SDS011;30969;51.052;17.056;2022-12-07T17:45:12;11.10;;;4.75;;
45232;SDS011;30969;51.052;17.056;2022-12-07T17:50:16;12.57;;;5.38;;
45232;SDS011;30969;51.052;17.056;2022-12-07T17:55:41;9.02;;;4.80;;
45232;SDS011;30969;51.052;17.056;2022-12-07T18:01:07;8.90;;;4.75;;
45232;SDS011;30969;51.052;17.056;2022-12-07T18:06:11;8.15;;;4.72;;
45232;SDS011;30969;51.052;17.056;2022-12-07T18:11:16;9.55;;;5.30;;
45232;SDS011;30969;51.052;17.056;2022-12-07T18:16:21;11.85;;;4.95;;
45232;SDS011;30969;51.052;17.056;2022-12-07T18:21:27;9.45;;;4.30;;
45232;SDS011;30969;51.052;17.056;2022-12-07T18:26:33;7.70;;;3.97;;
45232;SDS011;30969;51.052;17.056;2022-12-07T18:31:38;11.10;;;4.80;;
45232;SDS011;30969;51.052;17.056;2022-12-07T18:36:45;12.90;;;6.90;;
45232;SDS011;30969;51.052;17.056;2022-12-07T18:41:51;13.57;;;6.30;;
45232;SDS011;30969;51.052;17.056;2022-12-07T18:46:55;10.85;;;6.25;;
45232;SDS011;30969;51.052;17.056;2022-12-07T18:51:58;12.38;;;6.20;;
45232;SDS011;30969;51.052;17.056;2022-12-07T18:57:03;11.90;;;6.60;;
45232;SDS011;30969;51.052;17.056;2022-12-07T19:02:08;12.63;;;7.20;;
45232;SDS011;30969;51.052;17.056;2022-12-07T19:07:13;12.50;;;6.03;;
45232;SDS011;30969;51.052;17.056;2022-12-07T19:12:18;12.43;;;5.95;;
45232;SDS011;30969;51.052;17.056;2022-12-07T19:17:21;9.65;;;5.85;;
45232;SDS011;30969;51.052;17.056;2022-12-07T19:22:25;11.88;;;6.10;;
45232;SDS011;30969;51.052;17.056;2022-12-07T19:27:30;10.15;;;6.13;;
45232;SDS011;30969;51.052;17.056;2022-12-07T19:32:35;13.65;;;5.45;;
45232;SDS011;30969;51.052;17.056;2022-12-07T19:37:39;13.05;;;6.13;;
45232;SDS011;30969;51.052;17.056;2022-12-07T19:42:44;13.88;;;6.90;;
45232;SDS011;30969;51.052;17.056;2022-12-07T19:47:47;14.35;;;7.20;;
45232;SDS011;30969;51.052;17.056;2022-12-07T19:52:51;13.77;;;6.38;;
45232;SDS011;30969;51.052;17.056;2022-12-07T19:57:58;10.93;;;5.88;;
45232;SDS011;30969;51.052;17.056;2022-12-07T20:03:01;11.02;;;4.97;;
45232;SDS011;30969;51.052;17.056;2022-12-07T20:08:05;10.13;;;5.95;;
45232;SDS011;30969;51.052;17.056;2022-12-07T20:13:10;10.85;;;6.00;;
45232;SDS011;30969;51.052;17.056;2022-12-07T20:18:32;11.43;;;6.07;;
45232;SDS011;30969;51.052;17.056;2022-12-07T20:23:37;11.20;;;6.45;;
45232;SDS011;30969;51.052;17.056;2022-12-07T20:28:43;12.63;;;6.15;;
45232;SDS011;30969;51.052;17.056;2022-12-07T20:33:47;12.38;;;6.75;;
45232;SDS011;30969;51.052;17.056;2022-12-07T20:38:51;10.50;;;6.13;;
45232;SDS011;30969;51.052;17.056;2022-12-07T20:43:56;17.92;;;6.85;;
45232;SDS011;30969;51.052;17.056;2022-12-07T20:49:00;10.82;;;6.38;;
45232;SDS011;30969;51.052;17.056;2022-12-07T20:54:04;12.07;;;6.20;;
45232;SDS011;30969;51.052;17.056;2022-12-07T20:59:09;9.80;;;5.72;;
45232;SDS011;30969;51.052;17.056;2022-12-07T21:04:15;11.02;;;6.25;;
45232;SDS011;30969;51.052;17.056;2022-12-07T21:09:19;9.50;;;5.22;;
45232;SDS011;30969;51.052;17.056;2022-12-07T21:14:28;7.22;;;4.88;;
45232;SDS011;30969;51.052;17.056;2022-12-07T21:19:32;12.18;;;4.88;;
45232;SDS011;30969;51.052;17.056;2022-12-07T21:24:35;11.25;;;6.20;;
45232;SDS011;30969;51.052;17.056;2022-12-07T21:29:41;7.85;;;4.65;;
45232;SDS011;30969;51.052;17.056;2022-12-07T21:34:49;10.35;;;5.90;;
45232;SDS011;30969;51.052;17.056;2022-12-07T21:39:52;9.00;;;5.50;;
45232;SDS011;30969;51.052;17.056;2022-12-07T21:44:57;11.55;;;5.50;;
45232;SDS011;30969;51.052;17.056;2022-12-07T21:50:01;10.20;;;6.82;;
45232;SDS011;30969;51.052;17.056;2022-12-07T21:55:05;7.38;;;4.53;;
45232;SDS011;30969;51.052;17.056;2022-12-07T22:00:11;10.98;;;5.55;;
45232;SDS011;30969;51.052;17.056;2022-12-07T22:05:15;11.43;;;5.20;;
45232;SDS011;30969;51.052;17.056;2022-12-07T22:10:19;9.50;;;5.20;;
45232;SDS011;30969;51.052;17.056;2022-12-07T22:15:31;8.90;;;5.47;;
45232;SDS011;30969;51.052;17.056;2022-12-07T22:20:35;8.98;;;5.65;;
45232;SDS011;30969;51.052;17.056;2022-12-07T22:25:39;10.13;;;5.80;;
45232;SDS011;30969;51.052;17.056;2022-12-07T22:30:44;11.85;;;5.93;;
45232;SDS011;30969;51.052;17.056;2022-12-07T22:35:50;13.82;;;6.32;;
45232;SDS011;30969;51.052;17.056;2022-12-07T22:40:54;10.68;;;5.57;;
45232;SDS011;30969;51.052;17.056;2022-12-07T22:46:00;10.05;;;6.13;;
45232;SDS011;30969;51.052;17.056;2022-12-07T22:51:04;10.25;;;6.07;;
45232;SDS011;30969;51.052;17.056;2022-12-07T22:56:07;11.32;;;6.07;;
45232;SDS011;30969;51.052;17.056;2022-12-07T23:01:14;11.90;;;6.95;;
45232;SDS011;30969;51.052;17.056;2022-12-07T23:06:19;10.98;;;7.13;;
45232;SDS011;30969;51.052;17.056;2022-12-07T23:11:25;16.40;;;6.95;;
45232;SDS011;30969;51.052;17.056;2022-12-07T23:16:50;14.00;;;7.05;;
45232;SDS011;30969;51.052;17.056;2022-12-07T23:21:54;13.70;;;7.88;;
45232;SDS011;30969;51.052;17.056;2022-12-07T23:26:57;13.50;;;7.60;;
45232;SDS011;30969;51.052;17.056;2022-12-07T23:32:03;18.90;;;8.40;;
45232;SDS011;30969;51.052;17.056;2022-12-07T23:37:06;20.15;;;9.30;;
45232;SDS011;30969;51.052;17.056;2022-12-07T23:42:10;15.82;;;7.32;;
45232;SDS011;30969;51.052;17.056;2022-12-07T23:47:15;13.52;;;7.22;;
45232;SDS011;30969;51.052;17.056;2022-12-07T23:52:18;12.55;;;6.97;;
45232;SDS011;30969;51.052;17.056;2022-12-07T23:57:22;12.07;;;7.38;;
